createdAt,value
2018-09-28T00:01:55.589Z,51.01
2018-09-28T00:04:25.147Z,51.05
2018-09-28T00:06:54.039Z,51.19
2018-09-28T00:09:22.935Z,51.08
2018-09-28T00:11:51.835Z,51.55
2018-09-28T00:14:20.724Z,51.60
2018-09-28T00:16:49.650Z,51.83
2018-09-28T00:19:18.551Z,51.69
2018-09-28T00:21:47.491Z,52.01
2018-09-28T00:24:16.923Z,52.38
2018-09-28T00:26:45.834Z,52.67
2018-09-28T00:29:14.739Z,52.64
2018-09-28T00:31:44.334Z,52.39
2018-09-28T00:34:13.291Z,53.10
2018-09-28T00:36:42.233Z,52.80
2018-09-28T00:39:11.204Z,52.98
2018-09-28T00:41:42.799Z,52.86
2018-09-28T00:44:12.702Z,52.94
2018-09-28T00:46:41.591Z,52.85
2018-09-28T00:49:10.552Z,53.03
2018-09-28T00:51:39.614Z,52.87
2018-09-28T00:54:08.549Z,52.87
2018-09-28T00:56:37.490Z,52.51
2018-09-28T00:59:06.453Z,52.20
2018-09-28T01:01:35.402Z,52.51
2018-09-28T01:04:04.307Z,52.64
2018-09-28T01:06:33.205Z,52.76
2018-09-28T01:09:02.089Z,52.73
2018-09-28T01:11:31.058Z,52.14
2018-09-28T01:14:00.031Z,52.18
2018-09-28T01:16:33.226Z,52.20
2018-09-28T01:19:02.134Z,52.42
2018-09-28T01:21:31.019Z,52.47
2018-09-28T01:24:00.734Z,52.19
2018-09-28T01:26:30.527Z,51.99
2018-09-28T01:28:59.483Z,52.35
2018-09-28T01:31:28.483Z,52.31
2018-09-28T01:33:57.409Z,52.53
2018-09-28T01:36:26.314Z,53.17
2018-09-28T01:38:55.343Z,53.55
2018-09-28T01:41:24.264Z,53.56
2018-09-28T01:43:53.176Z,53.27
2018-09-28T01:46:22.117Z,53.15
2018-09-28T01:48:51.047Z,53.14
2018-09-28T01:51:21.178Z,53.16
2018-09-28T01:53:50.176Z,53.03
2018-09-28T01:56:19.073Z,52.59
2018-09-28T01:58:48.907Z,52.97
2018-09-28T02:01:17.865Z,52.68
2018-09-28T02:03:46.785Z,52.62
2018-09-28T02:06:15.673Z,52.99
2018-09-28T02:08:44.618Z,52.79
2018-09-28T02:11:13.499Z,52.90
2018-09-28T02:13:42.444Z,53.06
2018-09-28T02:16:11.322Z,52.80
2018-09-28T02:18:40.221Z,53.26
2018-09-28T02:21:09.103Z,53.86
2018-09-28T02:23:38.348Z,53.89
2018-09-28T02:26:07.323Z,54.03
2018-09-28T02:28:36.199Z,53.60
2018-09-28T02:31:05.195Z,53.57
2018-09-28T02:33:34.486Z,53.31
2018-09-28T02:36:03.367Z,53.63
2018-09-28T02:38:32.255Z,53.62
2018-09-28T02:41:01.949Z,54.19
2018-09-28T02:43:30.842Z,54.07
2018-09-28T02:45:59.838Z,54.00
2018-09-28T02:48:28.731Z,53.93
2018-09-28T02:50:57.615Z,54.00
2018-09-28T02:53:26.561Z,54.13
2018-09-28T02:55:55.476Z,53.96
2018-09-28T02:58:24.435Z,53.43
2018-09-28T03:00:53.352Z,53.53
2018-09-28T03:03:22.396Z,53.58
2018-09-28T03:05:52.694Z,54.21
2018-09-28T03:08:22.511Z,53.58
2018-09-28T03:10:52.041Z,53.61
2018-09-28T03:13:21.900Z,54.17
2018-09-28T03:15:50.831Z,54.45
2018-09-28T03:18:19.984Z,54.91
2018-09-28T03:20:49.062Z,53.67
2018-09-28T03:23:17.955Z,52.00
2018-09-28T03:25:47.024Z,52.17
2018-09-28T03:28:15.926Z,52.72
2018-09-28T03:30:44.825Z,53.37
2018-09-28T03:33:13.717Z,53.27
2018-09-28T03:35:42.671Z,54.14
2018-09-28T03:38:11.639Z,54.24
2018-09-28T03:40:42.213Z,54.43
2018-09-28T03:43:11.164Z,54.96
2018-09-28T03:45:40.063Z,54.89
2018-09-28T03:48:08.940Z,54.60
2018-09-28T03:50:39.142Z,54.37
2018-09-28T03:53:08.126Z,54.60
2018-09-28T03:55:37.083Z,54.25
2018-09-28T03:58:06.017Z,54.11
2018-09-28T04:00:34.920Z,54.43
2018-09-28T04:03:03.906Z,54.80
2018-09-28T04:05:32.807Z,54.43
2018-09-28T04:08:01.727Z,55.02
2018-09-28T04:10:30.666Z,54.95
2018-09-28T04:12:59.712Z,54.64
2018-09-28T04:15:28.596Z,54.99
2018-09-28T04:17:57.518Z,54.60
2018-09-28T04:20:26.458Z,54.62
2018-09-28T04:22:55.358Z,54.25
2018-09-28T04:25:24.295Z,54.54
2018-09-28T04:27:53.203Z,54.29
2018-09-28T04:30:22.181Z,54.38
2018-09-28T04:32:51.077Z,54.89
2018-09-28T04:35:19.981Z,54.62
2018-09-28T04:37:48.918Z,54.10
2018-09-28T04:40:17.859Z,54.61
2018-09-28T04:42:46.759Z,54.28
2018-09-28T04:45:15.731Z,54.16
2018-09-28T04:47:44.663Z,54.24
2018-09-28T04:50:13.595Z,53.92
2018-09-28T04:52:42.555Z,53.42
2018-09-28T04:55:11.512Z,53.90
2018-09-28T04:57:40.412Z,53.75
2018-09-28T05:00:09.901Z,53.90
2018-09-28T05:02:38.795Z,53.09
2018-09-28T05:05:07.879Z,52.62
2018-09-28T05:07:36.797Z,52.44
2018-09-28T05:10:05.859Z,52.87
2018-09-28T05:12:34.779Z,51.83
2018-09-28T05:15:03.775Z,51.49
2018-09-28T05:17:32.759Z,51.60
2018-09-28T05:20:01.643Z,50.69
2018-09-28T05:22:31.531Z,50.77
2018-09-28T05:25:00.438Z,50.35
2018-09-28T05:27:29.340Z,49.92
2018-09-28T05:29:58.264Z,50.00
2018-09-28T05:32:27.350Z,50.55
2018-09-28T05:34:56.167Z,51.64
2018-09-28T05:37:25.171Z,51.23
2018-09-28T05:39:54.054Z,50.55
2018-09-28T05:42:22.946Z,50.41
2018-09-28T05:44:51.890Z,49.98
2018-09-28T05:47:20.842Z,49.91
2018-09-28T05:49:49.824Z,49.55
2018-09-28T05:52:18.764Z,49.81
2018-09-28T05:54:47.683Z,50.26
2018-09-28T05:57:16.733Z,50.60
2018-09-28T05:59:50.806Z,50.59
2018-09-28T06:02:24.760Z,50.46
2018-09-28T06:04:58.902Z,50.65
2018-09-28T06:07:27.803Z,50.20
2018-09-28T06:09:56.759Z,49.51
2018-09-28T06:12:25.652Z,49.63
2018-09-28T06:14:54.595Z,50.42
2018-09-28T06:17:23.519Z,50.36
2018-09-28T06:19:52.437Z,49.28
2018-09-28T06:22:21.373Z,49.04
2018-09-28T06:24:50.284Z,48.88
2018-09-28T06:27:19.183Z,47.80
2018-09-28T06:29:48.166Z,47.64
2018-09-28T06:32:17.127Z,47.12
2018-09-28T06:34:46.035Z,46.71
2018-09-28T06:37:14.967Z,45.69
2018-09-28T06:39:43.885Z,45.04
2018-09-28T06:42:12.819Z,45.34
2018-09-28T06:44:42.335Z,44.67
2018-09-28T06:47:11.242Z,43.58
2018-09-28T06:49:40.175Z,43.66
2018-09-28T06:52:09.132Z,43.43
2018-09-28T06:54:38.096Z,43.38
2018-09-28T06:57:07.001Z,42.55
2018-09-28T06:59:35.958Z,42.64
2018-09-28T07:02:04.992Z,41.68
2018-09-28T07:04:33.902Z,42.12
2018-09-28T07:07:02.850Z,42.33
2018-09-28T07:09:31.765Z,41.74
2018-09-28T07:12:00.696Z,42.10
2018-09-28T07:14:29.622Z,41.76
2018-09-28T07:16:58.607Z,41.45
2018-09-28T07:19:27.562Z,41.69
2018-09-28T07:21:56.500Z,41.51
2018-09-28T07:24:26.241Z,40.81
2018-09-28T07:26:55.163Z,40.52
2018-09-28T07:29:24.987Z,40.08
2018-09-28T07:31:54.275Z,39.84
2018-09-28T07:34:23.194Z,38.84
2018-09-28T07:36:52.158Z,38.57
2018-09-28T07:39:21.068Z,38.69
2018-09-28T07:41:50.005Z,38.16
2018-09-28T07:44:18.935Z,37.64
2018-09-28T07:46:47.868Z,37.28
2018-09-28T07:49:16.823Z,37.89
2018-09-28T07:51:45.774Z,37.59
2018-09-28T07:54:14.711Z,37.13
2018-09-28T07:56:43.649Z,36.84
2018-09-28T07:59:12.547Z,35.89
2018-09-28T08:01:41.489Z,36.29
2018-09-28T08:04:10.408Z,35.71
2018-09-28T08:06:39.351Z,34.86
2018-09-28T08:09:09.719Z,34.99
2018-09-28T08:11:38.628Z,34.50
2018-09-28T08:14:08.069Z,34.40
2018-09-28T08:16:37.219Z,34.63
2018-09-28T08:19:06.259Z,34.79
2018-09-28T08:21:35.191Z,34.16
2018-09-28T08:24:04.188Z,34.15
2018-09-28T08:26:33.083Z,34.19
2018-09-28T08:29:02.002Z,33.22
2018-09-28T08:31:30.927Z,33.05
2018-09-28T08:33:59.831Z,31.79
2018-09-28T08:36:28.759Z,31.98
2018-09-28T08:38:57.684Z,31.42
2018-09-28T08:41:26.652Z,31.42
2018-09-28T08:43:55.567Z,31.46
2018-09-28T08:46:24.460Z,30.83
2018-09-28T08:48:53.370Z,31.19
2018-09-28T08:51:22.298Z,31.23
2018-09-28T08:53:51.307Z,30.93
2018-09-28T08:56:20.200Z,30.69
2018-09-28T08:58:49.111Z,30.25
2018-09-28T09:01:18.039Z,30.44
2018-09-28T09:03:47.015Z,29.71
2018-09-28T09:06:15.918Z,29.65
2018-09-28T09:08:44.912Z,30.44
2018-09-28T09:11:13.806Z,30.02
2018-09-28T09:13:42.743Z,29.69
2018-09-28T09:16:11.675Z,28.60
2018-09-28T09:18:40.663Z,28.42
2018-09-28T09:21:09.600Z,28.75
2018-09-28T09:23:38.507Z,28.18
2018-09-28T09:26:07.480Z,27.49
2018-09-28T09:28:36.380Z,28.35
2018-09-28T09:31:05.375Z,27.83
2018-09-28T09:33:34.307Z,27.85
2018-09-28T09:36:03.241Z,27.24
2018-09-28T09:38:32.152Z,27.67
2018-09-28T09:41:01.084Z,27.80
2018-09-28T09:43:30.009Z,27.49
2018-09-28T09:45:58.900Z,27.20
2018-09-28T09:48:27.862Z,27.20
2018-09-28T09:50:56.741Z,25.99
2018-09-28T09:53:25.863Z,26.31
2018-09-28T09:55:54.796Z,25.62
2018-09-28T09:58:23.709Z,25.12
2018-09-28T10:00:57.650Z,25.93
2018-09-28T10:03:31.594Z,25.58
2018-09-28T10:06:00.516Z,24.80
2018-09-28T10:08:29.440Z,24.27
2018-09-28T10:10:58.363Z,24.46
2018-09-28T10:13:27.302Z,22.70
2018-09-28T10:15:56.191Z,23.11
2018-09-28T10:18:25.075Z,22.09
2018-09-28T10:20:54.027Z,21.06
2018-09-28T10:23:22.968Z,19.87
2018-09-28T10:25:51.954Z,19.46
2018-09-28T10:28:21.085Z,19.23
2018-09-28T10:30:50.219Z,18.75
2018-09-28T10:33:19.159Z,18.94
2018-09-28T10:35:48.084Z,19.09
2018-09-28T10:38:16.990Z,18.87
2018-09-28T10:40:45.996Z,18.45
2018-09-28T10:43:14.854Z,18.57
2018-09-28T10:45:43.790Z,18.71
2018-09-28T10:48:12.721Z,19.05
2018-09-28T10:50:41.687Z,18.85
2018-09-28T10:53:11.153Z,19.12
2018-09-28T10:55:40.095Z,19.00
2018-09-28T10:58:09.144Z,18.88
2018-09-28T11:00:38.077Z,19.08
2018-09-28T11:03:07.074Z,19.52
2018-09-28T11:05:36.044Z,19.30
2018-09-28T11:08:04.981Z,20.08
2018-09-28T11:10:33.934Z,19.93
2018-09-28T11:13:02.840Z,20.14
2018-09-28T11:15:31.783Z,19.84
2018-09-28T11:18:00.761Z,20.53
2018-09-28T11:20:30.314Z,20.13
2018-09-28T11:22:59.250Z,20.91
2018-09-28T11:25:28.189Z,21.06
2018-09-28T11:27:57.195Z,20.95
2018-09-28T11:30:26.096Z,20.74
2018-09-28T11:32:55.030Z,20.49
2018-09-28T11:35:23.933Z,20.47
2018-09-28T11:37:52.981Z,19.58
2018-09-28T11:40:21.918Z,19.68
2018-09-28T11:42:50.913Z,20.00
2018-09-28T11:45:19.984Z,20.09
2018-09-28T11:47:48.822Z,19.94
2018-09-28T11:50:17.717Z,19.94
2018-09-28T11:52:46.646Z,19.88
2018-09-28T11:55:15.621Z,19.74
2018-09-28T11:57:44.611Z,18.67
2018-09-28T12:00:13.595Z,18.83
2018-09-28T12:02:42.504Z,19.40
2018-09-28T12:05:11.460Z,19.77
2018-09-28T12:07:40.409Z,19.24
2018-09-28T12:10:09.371Z,19.48
2018-09-28T12:12:38.427Z,19.86
2018-09-28T12:15:07.412Z,19.71
2018-09-28T12:17:36.289Z,19.83
2018-09-28T12:20:06.404Z,18.95
2018-09-28T12:22:35.345Z,19.47
2018-09-28T12:25:04.402Z,19.41
2018-09-28T12:27:33.384Z,19.30
2018-09-28T12:30:02.255Z,19.37
2018-09-28T12:32:31.171Z,18.72
2018-09-28T12:35:00.137Z,18.34
2018-09-28T12:37:29.085Z,18.09
2018-09-28T12:39:58.721Z,17.22
2018-09-28T12:42:28.294Z,17.75
2018-09-28T12:44:57.344Z,17.09
2018-09-28T12:47:26.272Z,16.74
2018-09-28T12:49:55.181Z,17.00
2018-09-28T12:52:24.071Z,16.84
2018-09-28T12:54:53.098Z,16.53
2018-09-28T12:57:21.986Z,17.39
2018-09-28T12:59:50.987Z,17.76
2018-09-28T13:02:19.941Z,18.09
2018-09-28T13:04:48.806Z,17.22
2018-09-28T13:07:17.690Z,16.19
2018-09-28T13:09:46.608Z,16.88
2018-09-28T13:12:15.548Z,16.90
2018-09-28T13:14:44.511Z,17.18
2018-09-28T13:17:13.421Z,17.11
2018-09-28T13:19:42.371Z,17.19
2018-09-28T13:22:11.284Z,16.85
2018-09-28T13:24:40.206Z,17.11
2018-09-28T13:27:09.156Z,17.37
2018-09-28T13:29:38.027Z,17.52
2018-09-28T13:32:06.975Z,17.30
2018-09-28T13:34:35.911Z,17.22
2018-09-28T13:37:04.836Z,17.05
2018-09-28T13:39:33.723Z,16.88
2018-09-28T13:42:02.632Z,17.01
2018-09-28T13:44:31.578Z,16.45
2018-09-28T13:47:00.502Z,16.38
2018-09-28T13:49:29.397Z,16.56
2018-09-28T13:51:58.459Z,16.16
2018-09-28T13:54:27.477Z,16.48
2018-09-28T13:56:56.371Z,16.21
2018-09-28T13:59:25.300Z,16.20
2018-09-28T14:01:54.253Z,15.94
2018-09-28T14:04:23.195Z,15.90
2018-09-28T14:06:52.478Z,15.92
2018-09-28T14:09:21.416Z,15.77
2018-09-28T14:11:50.306Z,16.16
2018-09-28T14:14:19.275Z,16.63
2018-09-28T14:16:48.356Z,16.43
2018-09-28T14:19:17.118Z,16.07
2018-09-28T14:21:46.023Z,16.55
2018-09-28T14:24:14.943Z,16.62
2018-09-28T14:26:44.006Z,16.58
2018-09-28T14:29:13.150Z,16.56
2018-09-28T14:31:42.050Z,16.33
2018-09-28T14:34:11.284Z,16.36
2018-09-28T14:36:40.202Z,16.74
2018-09-28T14:39:09.919Z,16.65
2018-09-28T14:41:38.885Z,16.64
2018-09-28T14:44:08.442Z,16.07
2018-09-28T14:46:37.437Z,15.81
2018-09-28T14:49:06.537Z,15.62
2018-09-28T14:51:35.384Z,15.33
2018-09-28T14:54:04.357Z,14.99
2018-09-28T14:56:33.331Z,14.80
2018-09-28T14:59:02.283Z,14.81
2018-09-28T15:01:31.428Z,14.79
2018-09-28T15:04:00.136Z,14.85
2018-09-28T15:06:29.169Z,14.18
2018-09-28T15:08:58.411Z,14.31
2018-09-28T15:11:27.423Z,14.54
2018-09-28T15:13:56.345Z,14.54
2018-09-28T15:16:25.352Z,14.81
2018-09-28T15:18:54.269Z,14.84
2018-09-28T15:21:23.263Z,15.17
2018-09-28T15:23:52.229Z,15.46
2018-09-28T15:26:21.115Z,14.96
2018-09-28T15:28:50.101Z,15.28
2018-09-28T15:31:23.439Z,15.35
2018-09-28T15:33:52.968Z,15.34
2018-09-28T15:36:22.895Z,15.78
2018-09-28T15:38:51.820Z,15.80
2018-09-28T15:41:20.794Z,15.95
2018-09-28T15:43:50.267Z,16.11
2018-09-28T15:46:19.210Z,16.47
2018-09-28T15:48:48.166Z,16.62
2018-09-28T15:51:17.080Z,16.81
2018-09-28T15:53:46.626Z,16.88
2018-09-28T15:56:15.646Z,17.41
2018-09-28T15:58:44.606Z,17.27
2018-09-28T16:01:13.647Z,17.63
2018-09-28T16:03:44.570Z,17.88
2018-09-28T16:06:16.834Z,17.77
2018-09-28T16:08:45.930Z,18.04
2018-09-28T16:11:16.250Z,27.12
2018-09-28T16:13:45.290Z,24.61
2018-09-28T16:16:15.614Z,19.17
2018-09-28T16:18:44.687Z,19.27
2018-09-28T16:21:13.710Z,19.00
2018-09-28T16:23:43.585Z,19.08
2018-09-28T16:26:12.536Z,18.88
2018-09-28T16:28:41.506Z,18.71
2018-09-28T16:31:10.479Z,19.04
2018-09-28T16:33:39.438Z,19.25
2018-09-28T16:36:08.492Z,19.22
2018-09-28T16:38:37.656Z,19.20
2018-09-28T16:41:06.711Z,19.58
2018-09-28T16:43:35.656Z,19.62
2018-09-28T16:46:04.595Z,19.69
2018-09-28T16:48:33.577Z,20.06
2018-09-28T16:51:02.578Z,19.79
2018-09-28T16:53:31.562Z,20.04
2018-09-28T16:56:00.508Z,20.03
2018-09-28T16:58:29.479Z,20.21
2018-09-28T17:00:58.417Z,20.06
2018-09-28T17:03:28.239Z,20.08
2018-09-28T17:05:57.176Z,20.30
2018-09-28T17:08:26.128Z,20.41
2018-09-28T17:10:55.101Z,20.84
2018-09-28T17:13:24.087Z,20.96
2018-09-28T17:15:52.991Z,21.05
2018-09-28T17:18:22.752Z,21.79
2018-09-28T17:20:51.686Z,21.88
2018-09-28T17:23:21.271Z,22.39
2018-09-28T17:25:50.254Z,22.76
2018-09-28T17:28:19.197Z,23.11
2018-09-28T17:30:48.154Z,23.62
2018-09-28T17:33:17.159Z,24.38
2018-09-28T17:35:46.143Z,24.54
2018-09-28T17:38:15.091Z,24.80
2018-09-28T17:40:44.031Z,24.86
2018-09-28T17:43:13.006Z,24.93
2018-09-28T17:45:41.967Z,25.08
2018-09-28T17:48:11.028Z,25.00
2018-09-28T17:50:39.987Z,25.07
2018-09-28T17:53:09.182Z,25.24
2018-09-28T17:55:38.213Z,25.30
2018-09-28T17:58:07.279Z,25.21
2018-09-28T18:00:37.277Z,24.21
2018-09-28T18:03:06.365Z,24.36
2018-09-28T18:05:38.547Z,24.30
2018-09-28T18:08:07.840Z,24.03
2018-09-28T18:10:36.798Z,24.43
2018-09-28T18:13:05.784Z,23.84
2018-09-28T18:15:34.770Z,23.47
2018-09-28T18:18:03.810Z,23.74
2018-09-28T18:20:32.751Z,23.76
2018-09-28T18:23:01.860Z,24.04
2018-09-28T18:25:30.767Z,23.53
2018-09-28T18:27:59.749Z,23.64
2018-09-28T18:30:28.695Z,23.33
2018-09-28T18:32:57.807Z,23.93
2018-09-28T18:35:26.753Z,24.03
2018-09-28T18:37:55.667Z,24.30
2018-09-28T18:40:24.739Z,23.92
2018-09-28T18:42:53.674Z,24.76
2018-09-28T18:45:22.591Z,24.58
2018-09-28T18:47:51.505Z,24.60
2018-09-28T18:50:20.419Z,24.51
2018-09-28T18:52:49.372Z,24.38
2018-09-28T18:55:18.390Z,24.79
2018-09-28T18:57:47.391Z,24.58
2018-09-28T19:00:16.335Z,24.99
2018-09-28T19:02:45.339Z,24.46
2018-09-28T19:05:14.342Z,25.08
2018-09-28T19:07:43.314Z,24.83
2018-09-28T19:10:12.260Z,25.05
2018-09-28T19:12:41.243Z,24.88
2018-09-28T19:15:10.214Z,25.08
2018-09-28T19:17:39.183Z,24.88
2018-09-28T19:20:08.109Z,25.97
2018-09-28T19:22:37.044Z,25.11
2018-09-28T19:25:06.107Z,25.32
2018-09-28T19:27:35.063Z,25.16
2018-09-28T19:30:04.106Z,25.31
2018-09-28T19:32:33.015Z,25.91
2018-09-28T19:35:01.935Z,25.83
2018-09-28T19:37:30.903Z,26.14
2018-09-28T19:40:00.136Z,25.67
2018-09-28T19:42:29.065Z,25.80
2018-09-28T19:44:57.980Z,26.14
2018-09-28T19:47:26.968Z,25.49
2018-09-28T19:49:55.888Z,26.47
2018-09-28T19:52:24.792Z,25.95
2018-09-28T19:54:53.735Z,25.66
2018-09-28T19:57:22.624Z,25.81
2018-09-28T19:59:51.535Z,26.55
2018-09-28T20:02:20.460Z,26.25
2018-09-28T20:04:49.380Z,26.32
2018-09-28T20:07:18.326Z,26.17
2018-09-28T20:09:47.315Z,26.55
2018-09-28T20:12:16.243Z,26.85
2018-09-28T20:14:45.162Z,26.02
2018-09-28T20:17:14.084Z,26.51
2018-09-28T20:19:43.067Z,26.50
2018-09-28T20:22:13.472Z,26.77
2018-09-28T20:24:42.448Z,26.79
2018-09-28T20:27:11.360Z,26.71
2018-09-28T20:29:40.291Z,26.33
2018-09-28T20:32:09.273Z,27.16
2018-09-28T20:34:39.060Z,26.88
2018-09-28T20:37:07.987Z,26.73
2018-09-28T20:39:36.915Z,27.21
2018-09-28T20:42:05.820Z,26.88
2018-09-28T20:44:34.724Z,27.08
2018-09-28T20:47:03.628Z,26.78
2018-09-28T20:49:32.603Z,27.47
2018-09-28T20:52:01.513Z,27.04
2018-09-28T20:54:30.442Z,27.23
2018-09-28T20:56:59.355Z,27.13
2018-09-28T20:59:28.283Z,27.59
2018-09-28T21:01:57.211Z,28.13
2018-09-28T21:04:26.085Z,27.68
2018-09-28T21:06:55.011Z,27.30
2018-09-28T21:09:23.923Z,27.53
2018-09-28T21:11:52.841Z,27.49
2018-09-28T21:14:21.779Z,27.35
2018-09-28T21:16:50.683Z,27.40
2018-09-28T21:19:19.571Z,28.09
2018-09-28T21:21:48.463Z,28.45
2018-09-28T21:24:17.380Z,29.27
2018-09-28T21:26:46.272Z,29.87
2018-09-28T21:29:15.205Z,30.22
2018-09-28T21:31:44.107Z,29.55
2018-09-28T21:34:13.088Z,30.51
2018-09-28T21:36:42.008Z,30.33
2018-09-28T21:39:11.709Z,31.10
2018-09-28T21:41:40.675Z,32.06
2018-09-28T21:44:09.788Z,32.12
2018-09-28T21:46:38.740Z,32.26
2018-09-28T21:49:07.729Z,32.74
2018-09-28T21:51:36.736Z,33.93
2018-09-28T21:54:05.640Z,32.91
2018-09-28T21:56:34.563Z,33.48
2018-09-28T21:59:03.471Z,33.85
2018-09-28T22:01:32.429Z,34.17
2018-09-28T22:04:01.325Z,34.25
2018-09-28T22:06:30.214Z,35.17
2018-09-28T22:08:59.116Z,34.92
2018-09-28T22:11:28.016Z,35.37
2018-09-28T22:13:56.975Z,36.28
2018-09-28T22:16:25.857Z,35.94
2018-09-28T22:18:54.840Z,35.91
2018-09-28T22:21:23.772Z,35.81
2018-09-28T22:23:52.662Z,35.79
2018-09-28T22:26:21.571Z,36.60
2018-09-28T22:28:50.470Z,36.62
2018-09-28T22:31:19.367Z,36.70
2018-09-28T22:33:48.273Z,36.74
2018-09-28T22:36:17.245Z,36.42
2018-09-28T22:38:46.175Z,35.64
2018-09-28T22:41:15.131Z,36.59
2018-09-28T22:43:44.036Z,37.31
2018-09-28T22:46:12.932Z,37.42
2018-09-28T22:48:41.844Z,37.92
2018-09-28T22:51:10.818Z,37.42
2018-09-28T22:53:39.712Z,37.24
2018-09-28T22:56:08.626Z,37.72
2018-09-28T22:58:37.534Z,38.06
2018-09-28T23:01:06.599Z,37.55
2018-09-28T23:03:35.552Z,37.41
2018-09-28T23:06:04.548Z,38.16
2018-09-28T23:08:33.444Z,37.89
2018-09-28T23:11:02.353Z,38.04
2018-09-28T23:13:31.251Z,38.40
2018-09-28T23:16:00.169Z,38.01
2018-09-28T23:18:29.068Z,38.50
2018-09-28T23:20:58.015Z,38.73
2018-09-28T23:23:26.899Z,39.07
2018-09-28T23:25:55.775Z,39.06
2018-09-28T23:28:24.693Z,39.13
2018-09-28T23:30:53.645Z,39.21
2018-09-28T23:33:22.569Z,39.11
2018-09-28T23:35:51.500Z,39.32
2018-09-28T23:38:20.400Z,39.75
2018-09-28T23:40:49.355Z,40.02
2018-09-28T23:43:18.313Z,40.14
2018-09-28T23:45:47.227Z,40.45
2018-09-28T23:48:16.120Z,40.53
2018-09-28T23:50:45.036Z,41.02
2018-09-28T23:53:13.976Z,41.05
2018-09-28T23:55:42.892Z,40.70
2018-09-28T23:58:11.822Z,40.88
